Track Голубев Михаил

Time Latitude Longitude Accuracy (66% radius in meters) Altitude (meters) Speed (km/hour) Bearing (degrees) Battery (%) GPS flag
09:00:40 60.371335 29.556502 6 78.976938400748 0.21211124956608 249.17892456055 95 1 delete
09:00:31 60.371308 29.556517 6 78.824228284862 0.50126713514328 293.56094360352 98 1 delete
09:00:28 60.371298 29.556560 6 78.892427479924 0.36468857526779 170.70785522461 98 1 delete
09:00:16 60.371285 29.556600 6 78.2748448515 0.047407582402229 344.07553100586 98 1 delete
09:00:04 60.371284 29.556619 4 78.15325825306 0.014298161491752 344.07553100586 98 1 delete
08:59:52 60.371294 29.556603 4 78.033481699881 0.01565726287663 344.07553100586 98 1 delete
08:59:43 60.371298 29.556610 4 77.990200316877 0.02639371342957 344.07553100586 98 1 delete
08:59:40 60.371309 29.556612 4 77.980591741842 0.02813564799726 344.07553100586 98 1 delete
08:59:34 60.371350 29.556632 4 77.964205320963 0.020086549222469 344.07553100586 98 1 delete
08:59:31 60.371369 29.556599 6 77.963718399644 0.011050371453166 344.07553100586 98 1 delete
08:59:28 60.371373 29.556549 6 77.964390619679 0.048046741634607 344.07553100586 98 1 delete
08:59:19 60.371365 29.556465 12 79.141460974393 0.040467340499163 344.07553100586 98 1 delete
08:59:07 60.371359 29.556487 8 79.448028836266 0.52858626842499 7.044141292572 98 1 delete
08:58:55 60.371370 29.556422 6 79.307469587898 0.17546834051609 30.810914993286 98 1 delete
08:58:49 60.371374 29.556423 8 79.20359768332 0.16586987674236 30.810914993286 98 1 delete
08:58:46 60.371370 29.556452 6 79.187042760215 0.046271003782749 30.810914993286 98 1 delete
08:58:40 60.371341 29.556507 8 79.139837440197 0.12871709465981 30.810914993286 98 1 delete
08:58:34 60.371332 29.556567 8 79.074339676791 0.024228820577264 30.810914993286 98 1 delete
08:58:22 60.371295 29.556561 6 79.331644512906 0.0034013241529465 30.810914993286 98 1 delete
08:58:13 60.371308 29.556579 8 79.502061415962 0.020177446305752 30.810914993286 98 1 delete
08:58:10 60.371320 29.556575 8 79.543964034463 0.032027594745159 30.810914993286 98 1 delete
08:58:01 60.371365 29.556535 8 79.640737047895 0.044029343873262 356.86831665039 98 1 delete
08:57:55 60.371341 29.556502 8 79.662281490325 0.71061795949936 356.86831665039 98 1 delete
08:57:49 60.371280 29.556489 6 79.602026116589 0.33724892139435 313.72201538086 98 1 delete
08:57:37 60.371251 29.556467 6 79.519463866206 0.055057354271412 210.89241027832 98 1 delete
08:57:25 60.371248 29.556495 8 79.199084760656 0.23431384563446 195.16465759277 98 1 delete
08:57:13 60.371231 29.556462 6 79.921593883431 0.49383929371834 63.324729919434 98 1 delete
08:57:10 60.371231 29.556464 8 79.537530615393 0.39569905400276 68.993034362793 98 1 delete
08:57:01 60.371243 29.556466 6 78.72363415119 0.59001207351685 83.34992980957 98 1 delete
08:56:55 60.371281 29.556445 6 78.19119780464 1.2908611297607 222.92413330078 98 1 delete
08:56:52 60.371314 29.556464 4 77.971853543329 1.0943217277527 0 98 1 delete
08:56:40 60.371367 29.556523 6 78.181526316812 0.30087023973465 0 98 1 delete
08:56:28 60.371376 29.556510 8 78.898473070489 0.28969171643257 0 98 1 delete
08:56:16 60.371346 29.556490 12 78.87082180685 0.77252900600433 0 98 1 delete
08:56:07 60.371303 29.556521 6 78.306817767521 0.25129616260529 0 98 1 delete
08:55:55 60.371278 29.556542 12 78.003693390876 0.15777869522572 0 98 1 delete
08:55:49 60.371290 29.556516 4 78.085899331745 0.016994662582874 0 98 1 delete
08:55:43 60.371339 29.556461 8 78.413910048341 0.21548169851303 0 98 1 delete
08:55:31 60.371366 29.556425 6 77.74035885267 0.027941133826971 0 98 1 delete
08:55:19 60.371328 29.556427 6 77.140209584866 0.52321314811707 0 98 1 delete
08:55:07 60.371346 29.556456 8 76.518325352546 0.10599862039089 0 98 1 delete
08:54:58 60.371335 29.556457 6 76.794454700143 0.10852933675051 0 98 1 delete
08:54:55 60.371331 29.556486 6 76.788997826814 0.13125778734684 0 98 1 delete
08:54:46 60.371297 29.556517 4 77.258320953968 0.01827940531075 0 98 1 delete
08:54:43 60.371299 29.556515 8 77.462729322559 0.31692978739738 0 98 1 delete
08:54:31 60.371331 29.556477 6 77.985252475511 0.00977479852736 0 98 1 delete
08:54:19 60.371348 29.556515 6 78.070262621107 0.015029670670629 0 98 1 delete
08:54:10 60.371354 29.556542 6 77.633436737167 0.30563154816628 0 98 1 delete
08:53:58 60.371328 29.556500 8 77.165522515091 0.20893722772598 0 98 1 delete
08:53:46 60.371358 29.556499 4 76.614250703071 0.014077649451792 0 98 1 delete